sensor_id;sensor_type;location;lat;lon;timestamp;P1;durP1;ratioP1;P2;durP2;ratioP2
69841;SDS011;57138;51.326;-0.068;2023-03-01T00:00:36;18.10;;;11.00;;
69841;SDS011;57138;51.326;-0.068;2023-03-01T00:03:02;17.48;;;11.70;;
69841;SDS011;57138;51.326;-0.068;2023-03-01T00:05:27;21.35;;;11.73;;
69841;SDS011;57138;51.326;-0.068;2023-03-01T00:07:53;19.80;;;12.05;;
69841;SDS011;57138;51.326;-0.068;2023-03-01T00:10:18;19.63;;;11.93;;
69841;SDS011;57138;51.326;-0.068;2023-03-01T00:12:44;16.33;;;9.98;;
69841;SDS011;57138;51.326;-0.068;2023-03-01T00:15:09;19.23;;;11.18;;
69841;SDS011;57138;51.326;-0.068;2023-03-01T00:17:35;18.95;;;10.77;;
69841;SDS011;57138;51.326;-0.068;2023-03-01T00:20:00;25.15;;;12.30;;
69841;SDS011;57138;51.326;-0.068;2023-03-01T00:22:26;21.10;;;12.30;;
69841;SDS011;57138;51.326;-0.068;2023-03-01T00:24:53;20.05;;;13.90;;
69841;SDS011;57138;51.326;-0.068;2023-03-01T00:27:19;23.73;;;12.85;;
69841;SDS011;57138;51.326;-0.068;2023-03-01T00:29:44;28.40;;;14.65;;
69841;SDS011;57138;51.326;-0.068;2023-03-01T00:32:10;22.48;;;14.13;;
69841;SDS011;57138;51.326;-0.068;2023-03-01T00:34:35;21.23;;;13.80;;
69841;SDS011;57138;51.326;-0.068;2023-03-01T00:37:01;18.58;;;12.75;;
69841;SDS011;57138;51.326;-0.068;2023-03-01T00:39:30;19.67;;;12.05;;
69841;SDS011;57138;51.326;-0.068;2023-03-01T00:41:56;22.15;;;12.90;;
69841;SDS011;57138;51.326;-0.068;2023-03-01T00:44:21;23.38;;;13.00;;
69841;SDS011;57138;51.326;-0.068;2023-03-01T00:46:47;19.92;;;14.23;;
69841;SDS011;57138;51.326;-0.068;2023-03-01T00:49:12;21.48;;;13.75;;
69841;SDS011;57138;51.326;-0.068;2023-03-01T00:51:38;19.92;;;12.48;;
69841;SDS011;57138;51.326;-0.068;2023-03-01T00:54:07;22.20;;;13.82;;
69841;SDS011;57138;51.326;-0.068;2023-03-01T00:56:33;27.75;;;16.30;;
69841;SDS011;57138;51.326;-0.068;2023-03-01T00:58:59;26.45;;;15.60;;
69841;SDS011;57138;51.326;-0.068;2023-03-01T01:01:26;22.63;;;14.55;;
69841;SDS011;57138;51.326;-0.068;2023-03-01T01:03:57;22.83;;;14.63;;
69841;SDS011;57138;51.326;-0.068;2023-03-01T01:06:26;27.25;;;15.85;;
69841;SDS011;57138;51.326;-0.068;2023-03-01T01:08:54;26.50;;;16.15;;
69841;SDS011;57138;51.326;-0.068;2023-03-01T01:11:20;26.27;;;15.82;;
69841;SDS011;57138;51.326;-0.068;2023-03-01T01:13:47;26.50;;;15.57;;
69841;SDS011;57138;51.326;-0.068;2023-03-01T01:16:16;24.63;;;16.88;;
69841;SDS011;57138;51.326;-0.068;2023-03-01T01:18:43;26.13;;;17.05;;
69841;SDS011;57138;51.326;-0.068;2023-03-01T01:21:10;27.13;;;18.13;;
69841;SDS011;57138;51.326;-0.068;2023-03-01T01:23:38;25.83;;;17.23;;
69841;SDS011;57138;51.326;-0.068;2023-03-01T01:26:05;31.95;;;18.02;;
69841;SDS011;57138;51.326;-0.068;2023-03-01T01:28:34;31.98;;;15.88;;
69841;SDS011;57138;51.326;-0.068;2023-03-01T01:31:00;29.25;;;15.32;;
69841;SDS011;57138;51.326;-0.068;2023-03-01T01:33:25;26.45;;;16.08;;
69841;SDS011;57138;51.326;-0.068;2023-03-01T01:35:51;26.60;;;15.98;;
69841;SDS011;57138;51.326;-0.068;2023-03-01T01:38:17;24.33;;;16.02;;
69841;SDS011;57138;51.326;-0.068;2023-03-01T01:40:46;25.27;;;15.50;;
69841;SDS011;57138;51.326;-0.068;2023-03-01T01:45:47;24.50;;;16.35;;
69841;SDS011;57138;51.326;-0.068;2023-03-01T01:48:14;27.65;;;15.70;;
69841;SDS011;57138;51.326;-0.068;2023-03-01T01:50:43;28.15;;;16.23;;
69841;SDS011;57138;51.326;-0.068;2023-03-01T01:53:13;26.27;;;16.50;;
69841;SDS011;57138;51.326;-0.068;2023-03-01T01:55:43;27.90;;;16.77;;
69841;SDS011;57138;51.326;-0.068;2023-03-01T01:58:14;29.23;;;17.63;;
69841;SDS011;57138;51.326;-0.068;2023-03-01T02:00:42;30.42;;;16.85;;
69841;SDS011;57138;51.326;-0.068;2023-03-01T02:03:10;27.40;;;17.15;;
69841;SDS011;57138;51.326;-0.068;2023-03-01T02:08:28;30.45;;;17.30;;
69841;SDS011;57138;51.326;-0.068;2023-03-01T02:10:55;31.63;;;15.85;;
69841;SDS011;57138;51.326;-0.068;2023-03-01T02:13:22;29.63;;;17.13;;
69841;SDS011;57138;51.326;-0.068;2023-03-01T02:15:48;29.10;;;17.58;;
69841;SDS011;57138;51.326;-0.068;2023-03-01T02:18:14;28.83;;;17.15;;
69841;SDS011;57138;51.326;-0.068;2023-03-01T02:23:23;28.98;;;17.73;;
69841;SDS011;57138;51.326;-0.068;2023-03-01T02:30:52;29.92;;;17.73;;
69841;SDS011;57138;51.326;-0.068;2023-03-01T02:33:37;30.88;;;18.38;;
69841;SDS011;57138;51.326;-0.068;2023-03-01T02:36:05;33.05;;;16.85;;
69841;SDS011;57138;51.326;-0.068;2023-03-01T02:38:34;29.08;;;17.15;;
69841;SDS011;57138;51.326;-0.068;2023-03-01T02:40:59;29.50;;;16.95;;
69841;SDS011;57138;51.326;-0.068;2023-03-01T02:43:27;30.20;;;16.42;;
69841;SDS011;57138;51.326;-0.068;2023-03-01T02:45:57;30.48;;;17.17;;
69841;SDS011;57138;51.326;-0.068;2023-03-01T02:48:26;26.75;;;15.90;;
69841;SDS011;57138;51.326;-0.068;2023-03-01T02:50:55;30.50;;;15.95;;
69841;SDS011;57138;51.326;-0.068;2023-03-01T02:53:48;27.38;;;17.73;;
69841;SDS011;57138;51.326;-0.068;2023-03-01T02:56:24;24.80;;;15.30;;
69841;SDS011;57138;51.326;-0.068;2023-03-01T02:58:51;26.58;;;15.73;;
69841;SDS011;57138;51.326;-0.068;2023-03-01T03:01:18;28.45;;;14.05;;
69841;SDS011;57138;51.326;-0.068;2023-03-01T03:03:45;21.95;;;13.48;;
69841;SDS011;57138;51.326;-0.068;2023-03-01T03:06:11;19.92;;;10.88;;
69841;SDS011;57138;51.326;-0.068;2023-03-01T03:08:36;21.92;;;12.57;;
69841;SDS011;57138;51.326;-0.068;2023-03-01T03:11:02;19.52;;;11.63;;
69841;SDS011;57138;51.326;-0.068;2023-03-01T03:13:27;20.40;;;12.25;;
69841;SDS011;57138;51.326;-0.068;2023-03-01T03:15:54;21.85;;;11.50;;
69841;SDS011;57138;51.326;-0.068;2023-03-01T03:18:21;26.40;;;12.02;;
69841;SDS011;57138;51.326;-0.068;2023-03-01T03:20:47;20.13;;;10.55;;
69841;SDS011;57138;51.326;-0.068;2023-03-01T03:23:17;22.48;;;11.63;;
69841;SDS011;57138;51.326;-0.068;2023-03-01T03:25:43;16.75;;;10.00;;
69841;SDS011;57138;51.326;-0.068;2023-03-01T03:28:09;18.73;;;10.07;;
69841;SDS011;57138;51.326;-0.068;2023-03-01T03:30:36;22.83;;;10.82;;
69841;SDS011;57138;51.326;-0.068;2023-03-01T03:33:04;18.23;;;10.85;;
69841;SDS011;57138;51.326;-0.068;2023-03-01T03:35:38;24.15;;;10.75;;
69841;SDS011;57138;51.326;-0.068;2023-03-01T03:38:07;15.73;;;10.10;;
69841;SDS011;57138;51.326;-0.068;2023-03-01T03:40:41;18.17;;;8.95;;
69841;SDS011;57138;51.326;-0.068;2023-03-01T03:43:29;19.15;;;9.10;;
69841;SDS011;57138;51.326;-0.068;2023-03-01T03:45:56;16.17;;;7.30;;
69841;SDS011;57138;51.326;-0.068;2023-03-01T03:48:22;19.38;;;8.48;;
69841;SDS011;57138;51.326;-0.068;2023-03-01T03:50:49;15.32;;;7.05;;
69841;SDS011;57138;51.326;-0.068;2023-03-01T03:53:17;15.98;;;6.88;;
69841;SDS011;57138;51.326;-0.068;2023-03-01T03:55:43;21.48;;;6.07;;
69841;SDS011;57138;51.326;-0.068;2023-03-01T03:58:09;13.18;;;6.75;;
69841;SDS011;57138;51.326;-0.068;2023-03-01T04:00:39;15.25;;;5.93;;
69841;SDS011;57138;51.326;-0.068;2023-03-01T04:03:07;11.50;;;5.70;;
69841;SDS011;57138;51.326;-0.068;2023-03-01T04:05:33;12.15;;;5.03;;
69841;SDS011;57138;51.326;-0.068;2023-03-01T04:08:00;12.02;;;5.15;;
69841;SDS011;57138;51.326;-0.068;2023-03-01T04:10:33;14.10;;;4.40;;
69841;SDS011;57138;51.326;-0.068;2023-03-01T04:13:11;13.57;;;4.57;;
69841;SDS011;57138;51.326;-0.068;2023-03-01T04:15:38;10.70;;;4.53;;
69841;SDS011;57138;51.326;-0.068;2023-03-01T04:18:04;10.00;;;4.32;;
69841;SDS011;57138;51.326;-0.068;2023-03-01T04:20:30;12.20;;;5.35;;
69841;SDS011;57138;51.326;-0.068;2023-03-01T04:30:49;8.50;;;3.85;;
69841;SDS011;57138;51.326;-0.068;2023-03-01T04:33:15;11.93;;;4.00;;
69841;SDS011;57138;51.326;-0.068;2023-03-01T04:35:40;7.63;;;3.45;;
69841;SDS011;57138;51.326;-0.068;2023-03-01T04:38:06;8.50;;;3.65;;
69841;SDS011;57138;51.326;-0.068;2023-03-01T04:40:32;7.63;;;4.07;;
69841;SDS011;57138;51.326;-0.068;2023-03-01T04:42:57;11.48;;;4.75;;
69841;SDS011;57138;51.326;-0.068;2023-03-01T04:45:23;10.35;;;3.72;;
69841;SDS011;57138;51.326;-0.068;2023-03-01T04:47:48;7.63;;;4.32;;
69841;SDS011;57138;51.326;-0.068;2023-03-01T04:50:15;7.95;;;4.47;;
69841;SDS011;57138;51.326;-0.068;2023-03-01T04:52:42;14.90;;;4.72;;
69841;SDS011;57138;51.326;-0.068;2023-03-01T04:55:09;12.73;;;4.43;;
69841;SDS011;57138;51.326;-0.068;2023-03-01T04:57:35;7.70;;;3.70;;
69841;SDS011;57138;51.326;-0.068;2023-03-01T05:00:01;8.85;;;4.00;;
69841;SDS011;57138;51.326;-0.068;2023-03-01T05:02:45;10.43;;;3.80;;
69841;SDS011;57138;51.326;-0.068;2023-03-01T05:05:11;7.88;;;3.95;;
69841;SDS011;57138;51.326;-0.068;2023-03-01T05:07:38;8.20;;;3.58;;
69841;SDS011;57138;51.326;-0.068;2023-03-01T05:10:03;16.15;;;3.72;;
69841;SDS011;57138;51.326;-0.068;2023-03-01T05:12:29;10.05;;;4.00;;
69841;SDS011;57138;51.326;-0.068;2023-03-01T05:14:54;9.15;;;3.88;;
69841;SDS011;57138;51.326;-0.068;2023-03-01T05:17:19;9.68;;;3.72;;
69841;SDS011;57138;51.326;-0.068;2023-03-01T05:19:45;10.02;;;4.45;;
69841;SDS011;57138;51.326;-0.068;2023-03-01T05:22:11;8.30;;;3.30;;
69841;SDS011;57138;51.326;-0.068;2023-03-01T05:24:36;8.15;;;3.15;;
69841;SDS011;57138;51.326;-0.068;2023-03-01T05:27:03;11.23;;;3.65;;
69841;SDS011;57138;51.326;-0.068;2023-03-01T05:29:30;6.88;;;3.10;;
69841;SDS011;57138;51.326;-0.068;2023-03-01T05:31:59;7.00;;;3.30;;
69841;SDS011;57138;51.326;-0.068;2023-03-01T05:34:33;6.78;;;3.10;;
69841;SDS011;57138;51.326;-0.068;2023-03-01T05:37:00;7.43;;;3.17;;
69841;SDS011;57138;51.326;-0.068;2023-03-01T05:39:26;8.80;;;4.07;;
69841;SDS011;57138;51.326;-0.068;2023-03-01T05:41:54;7.68;;;3.10;;
69841;SDS011;57138;51.326;-0.068;2023-03-01T05:44:23;7.05;;;3.42;;
69841;SDS011;57138;51.326;-0.068;2023-03-01T05:46:52;6.78;;;3.10;;
69841;SDS011;57138;51.326;-0.068;2023-03-01T05:49:21;9.88;;;2.97;;
69841;SDS011;57138;51.326;-0.068;2023-03-01T05:51:49;9.50;;;3.45;;
69841;SDS011;57138;51.326;-0.068;2023-03-01T05:54:16;5.75;;;2.78;;
69841;SDS011;57138;51.326;-0.068;2023-03-01T05:56:43;6.70;;;3.13;;
69841;SDS011;57138;51.326;-0.068;2023-03-01T05:59:09;8.70;;;4.10;;
69841;SDS011;57138;51.326;-0.068;2023-03-01T06:01:35;8.82;;;3.78;;
69841;SDS011;57138;51.326;-0.068;2023-03-01T06:04:01;7.43;;;3.13;;
69841;SDS011;57138;51.326;-0.068;2023-03-01T06:06:27;8.88;;;3.60;;
69841;SDS011;57138;51.326;-0.068;2023-03-01T06:08:53;6.50;;;3.28;;
69841;SDS011;57138;51.326;-0.068;2023-03-01T06:11:19;11.57;;;4.55;;
69841;SDS011;57138;51.326;-0.068;2023-03-01T06:13:45;5.90;;;3.22;;
69841;SDS011;57138;51.326;-0.068;2023-03-01T06:16:11;10.05;;;3.67;;
69841;SDS011;57138;51.326;-0.068;2023-03-01T06:18:37;6.95;;;3.33;;
69841;SDS011;57138;51.326;-0.068;2023-03-01T06:21:03;7.03;;;3.60;;
69841;SDS011;57138;51.326;-0.068;2023-03-01T06:23:30;12.93;;;4.38;;
69841;SDS011;57138;51.326;-0.068;2023-03-01T06:25:55;8.88;;;3.85;;
69841;SDS011;57138;51.326;-0.068;2023-03-01T06:28:21;8.93;;;3.80;;
69841;SDS011;57138;51.326;-0.068;2023-03-01T06:30:47;7.63;;;3.65;;
69841;SDS011;57138;51.326;-0.068;2023-03-01T06:33:12;7.25;;;3.55;;
69841;SDS011;57138;51.326;-0.068;2023-03-01T06:35:39;6.38;;;3.40;;
69841;SDS011;57138;51.326;-0.068;2023-03-01T06:38:04;8.82;;;3.08;;
69841;SDS011;57138;51.326;-0.068;2023-03-01T06:40:31;6.97;;;3.28;;
69841;SDS011;57138;51.326;-0.068;2023-03-01T06:42:57;7.30;;;3.60;;
69841;SDS011;57138;51.326;-0.068;2023-03-01T06:45:23;7.03;;;3.10;;
69841;SDS011;57138;51.326;-0.068;2023-03-01T06:47:49;7.82;;;3.50;;
69841;SDS011;57138;51.326;-0.068;2023-03-01T06:50:16;6.18;;;3.00;;
69841;SDS011;57138;51.326;-0.068;2023-03-01T06:52:42;7.75;;;3.75;;
69841;SDS011;57138;51.326;-0.068;2023-03-01T06:55:10;6.88;;;3.53;;
69841;SDS011;57138;51.326;-0.068;2023-03-01T06:57:36;10.60;;;3.85;;
69841;SDS011;57138;51.326;-0.068;2023-03-01T07:00:05;7.35;;;4.05;;
69841;SDS011;57138;51.326;-0.068;2023-03-01T07:02:31;8.27;;;4.13;;
69841;SDS011;57138;51.326;-0.068;2023-03-01T07:04:57;9.80;;;4.43;;
69841;SDS011;57138;51.326;-0.068;2023-03-01T07:07:23;10.52;;;4.95;;
69841;SDS011;57138;51.326;-0.068;2023-03-01T07:09:49;16.17;;;5.10;;
69841;SDS011;57138;51.326;-0.068;2023-03-01T07:12:15;10.80;;;5.13;;
69841;SDS011;57138;51.326;-0.068;2023-03-01T07:14:41;12.38;;;6.00;;
69841;SDS011;57138;51.326;-0.068;2023-03-01T07:17:06;11.48;;;5.68;;
69841;SDS011;57138;51.326;-0.068;2023-03-01T07:19:32;10.45;;;4.97;;
69841;SDS011;57138;51.326;-0.068;2023-03-01T07:21:58;12.93;;;6.47;;
69841;SDS011;57138;51.326;-0.068;2023-03-01T07:24:23;13.02;;;6.53;;
69841;SDS011;57138;51.326;-0.068;2023-03-01T07:26:49;15.98;;;6.63;;
69841;SDS011;57138;51.326;-0.068;2023-03-01T07:29:15;13.98;;;6.50;;
69841;SDS011;57138;51.326;-0.068;2023-03-01T07:31:41;15.75;;;7.25;;
69841;SDS011;57138;51.326;-0.068;2023-03-01T07:34:07;13.32;;;6.50;;
69841;SDS011;57138;51.326;-0.068;2023-03-01T07:36:32;13.48;;;6.05;;
69841;SDS011;57138;51.326;-0.068;2023-03-01T07:38:58;10.77;;;5.60;;
69841;SDS011;57138;51.326;-0.068;2023-03-01T07:41:23;14.13;;;6.10;;
69841;SDS011;57138;51.326;-0.068;2023-03-01T07:43:49;9.52;;;4.20;;
69841;SDS011;57138;51.326;-0.068;2023-03-01T07:46:14;11.15;;;5.57;;
69841;SDS011;57138;51.326;-0.068;2023-03-01T07:48:40;11.52;;;6.10;;
69841;SDS011;57138;51.326;-0.068;2023-03-01T07:51:05;9.10;;;5.43;;
69841;SDS011;57138;51.326;-0.068;2023-03-01T07:53:31;11.63;;;4.55;;
69841;SDS011;57138;51.326;-0.068;2023-03-01T07:56:11;12.23;;;4.57;;
69841;SDS011;57138;51.326;-0.068;2023-03-01T07:58:39;8.93;;;3.60;;
69841;SDS011;57138;51.326;-0.068;2023-03-01T08:01:07;7.13;;;3.05;;
69841;SDS011;57138;51.326;-0.068;2023-03-01T08:03:34;8.00;;;2.75;;
69841;SDS011;57138;51.326;-0.068;2023-03-01T08:06:02;5.50;;;2.60;;
69841;SDS011;57138;51.326;-0.068;2023-03-01T08:08:29;11.95;;;3.35;;
69841;SDS011;57138;51.326;-0.068;2023-03-01T08:10:58;4.22;;;2.20;;
69841;SDS011;57138;51.326;-0.068;2023-03-01T08:13:25;8.88;;;3.30;;
69841;SDS011;57138;51.326;-0.068;2023-03-01T08:15:51;7.95;;;3.55;;
69841;SDS011;57138;51.326;-0.068;2023-03-01T08:18:17;11.70;;;3.83;;
69841;SDS011;57138;51.326;-0.068;2023-03-01T08:20:44;8.32;;;2.17;;
69841;SDS011;57138;51.326;-0.068;2023-03-01T08:23:10;10.25;;;3.78;;
69841;SDS011;57138;51.326;-0.068;2023-03-01T08:25:36;9.10;;;3.47;;
69841;SDS011;57138;51.326;-0.068;2023-03-01T08:28:02;10.30;;;3.15;;
69841;SDS011;57138;51.326;-0.068;2023-03-01T08:30:27;10.30;;;3.28;;
69841;SDS011;57138;51.326;-0.068;2023-03-01T08:32:53;10.55;;;2.85;;
69841;SDS011;57138;51.326;-0.068;2023-03-01T08:35:18;6.03;;;2.90;;
69841;SDS011;57138;51.326;-0.068;2023-03-01T08:37:44;11.52;;;3.53;;
69841;SDS011;57138;51.326;-0.068;2023-03-01T08:40:10;12.95;;;2.90;;
69841;SDS011;57138;51.326;-0.068;2023-03-01T08:42:38;10.40;;;4.53;;
69841;SDS011;57138;51.326;-0.068;2023-03-01T08:45:05;11.32;;;3.20;;
69841;SDS011;57138;51.326;-0.068;2023-03-01T08:47:31;10.02;;;2.85;;
69841;SDS011;57138;51.326;-0.068;2023-03-01T08:49:58;7.95;;;2.80;;
69841;SDS011;57138;51.326;-0.068;2023-03-01T08:52:24;7.72;;;2.58;;
69841;SDS011;57138;51.326;-0.068;2023-03-01T08:54:50;12.23;;;2.50;;
69841;SDS011;57138;51.326;-0.068;2023-03-01T08:57:16;15.48;;;3.90;;
69841;SDS011;57138;51.326;-0.068;2023-03-01T08:59:44;8.25;;;2.60;;
69841;SDS011;57138;51.326;-0.068;2023-03-01T09:02:12;8.30;;;2.28;;
69841;SDS011;57138;51.326;-0.068;2023-03-01T09:04:40;7.30;;;2.60;;
69841;SDS011;57138;51.326;-0.068;2023-03-01T09:07:06;5.45;;;1.85;;
69841;SDS011;57138;51.326;-0.068;2023-03-01T09:09:32;5.75;;;2.15;;
69841;SDS011;57138;51.326;-0.068;2023-03-01T09:11:57;7.00;;;2.78;;
69841;SDS011;57138;51.326;-0.068;2023-03-01T09:14:23;9.93;;;3.10;;
69841;SDS011;57138;51.326;-0.068;2023-03-01T09:16:48;11.73;;;3.13;;
69841;SDS011;57138;51.326;-0.068;2023-03-01T09:19:14;5.47;;;1.67;;
69841;SDS011;57138;51.326;-0.068;2023-03-01T09:21:39;6.45;;;2.05;;
69841;SDS011;57138;51.326;-0.068;2023-03-01T09:24:05;7.03;;;2.25;;
69841;SDS011;57138;51.326;-0.068;2023-03-01T09:26:38;6.20;;;1.90;;
69841;SDS011;57138;51.326;-0.068;2023-03-01T09:29:03;6.13;;;1.73;;
69841;SDS011;57138;51.326;-0.068;2023-03-01T09:31:29;7.20;;;2.25;;
69841;SDS011;57138;51.326;-0.068;2023-03-01T09:33:54;5.38;;;1.80;;
69841;SDS011;57138;51.326;-0.068;2023-03-01T09:36:20;9.52;;;2.25;;
69841;SDS011;57138;51.326;-0.068;2023-03-01T09:38:48;6.07;;;3.00;;
69841;SDS011;57138;51.326;-0.068;2023-03-01T09:43:46;7.50;;;1.90;;
69841;SDS011;57138;51.326;-0.068;2023-03-01T09:46:19;4.28;;;1.48;;
69841;SDS011;57138;51.326;-0.068;2023-03-01T09:51:19;4.25;;;1.60;;
69841;SDS011;57138;51.326;-0.068;2023-03-01T09:53:50;5.60;;;1.95;;
69841;SDS011;57138;51.326;-0.068;2023-03-01T09:56:20;8.13;;;1.65;;
69841;SDS011;57138;51.326;-0.068;2023-03-01T10:04:26;6.38;;;2.03;;
69841;SDS011;57138;51.326;-0.068;2023-03-01T10:09:36;7.80;;;1.63;;
69841;SDS011;57138;51.326;-0.068;2023-03-01T10:12:04;4.68;;;1.90;;
69841;SDS011;57138;51.326;-0.068;2023-03-01T10:14:36;6.40;;;1.88;;
69841;SDS011;57138;51.326;-0.068;2023-03-01T10:17:31;8.82;;;3.10;;
69841;SDS011;57138;51.326;-0.068;2023-03-01T10:20:22;7.60;;;2.13;;
69841;SDS011;57138;51.326;-0.068;2023-03-01T10:22:50;9.68;;;1.95;;
69841;SDS011;57138;51.326;-0.068;2023-03-01T10:25:29;4.72;;;1.70;;
69841;SDS011;57138;51.326;-0.068;2023-03-01T10:27:59;10.55;;;3.67;;
69841;SDS011;57138;51.326;-0.068;2023-03-01T10:30:38;6.07;;;2.03;;
69841;SDS011;57138;51.326;-0.068;2023-03-01T10:35:52;6.43;;;1.97;;
69841;SDS011;57138;51.326;-0.068;2023-03-01T10:38:18;5.30;;;2.28;;
69841;SDS011;57138;51.326;-0.068;2023-03-01T10:40:53;3.85;;;1.60;;
69841;SDS011;57138;51.326;-0.068;2023-03-01T10:43:24;6.38;;;1.73;;
69841;SDS011;57138;51.326;-0.068;2023-03-01T10:45:51;4.43;;;1.17;;
69841;SDS011;57138;51.326;-0.068;2023-03-01T10:56:06;3.90;;;1.38;;
69841;SDS011;57138;51.326;-0.068;2023-03-01T10:58:38;3.35;;;1.00;;
69841;SDS011;57138;51.326;-0.068;2023-03-01T11:06:35;4.55;;;1.23;;
69841;SDS011;57138;51.326;-0.068;2023-03-01T11:09:13;6.57;;;1.25;;
69841;SDS011;57138;51.326;-0.068;2023-03-01T11:11:41;5.88;;;1.23;;
69841;SDS011;57138;51.326;-0.068;2023-03-01T11:14:17;4.07;;;0.85;;
69841;SDS011;57138;51.326;-0.068;2023-03-01T11:17:00;4.90;;;1.05;;
69841;SDS011;57138;51.326;-0.068;2023-03-01T11:19:30;3.42;;;0.80;;
69841;SDS011;57138;51.326;-0.068;2023-03-01T11:22:07;4.22;;;1.08;;
69841;SDS011;57138;51.326;-0.068;2023-03-01T11:27:21;1.63;;;0.65;;
69841;SDS011;57138;51.326;-0.068;2023-03-01T11:30:15;4.22;;;1.05;;
69841;SDS011;57138;51.326;-0.068;2023-03-01T11:35:30;4.90;;;0.88;;
69841;SDS011;57138;51.326;-0.068;2023-03-01T11:40:31;3.95;;;1.00;;
69841;SDS011;57138;51.326;-0.068;2023-03-01T11:57:36;3.25;;;0.90;;
69841;SDS011;57138;51.326;-0.068;2023-03-01T12:30:23;2.60;;;0.70;;
69841;SDS011;57138;51.326;-0.068;2023-03-01T12:35:45;4.22;;;0.98;;
69841;SDS011;57138;51.326;-0.068;2023-03-01T12:43:24;2.80;;;1.13;;
69841;SDS011;57138;51.326;-0.068;2023-03-01T12:46:47;6.55;;;1.92;;
69841;SDS011;57138;51.326;-0.068;2023-03-01T12:49:10;4.90;;;1.35;;
69841;SDS011;57138;51.326;-0.068;2023-03-01T12:51:44;4.43;;;1.50;;
69841;SDS011;57138;51.326;-0.068;2023-03-01T12:54:26;4.57;;;1.65;;
69841;SDS011;57138;51.326;-0.068;2023-03-01T12:56:55;5.95;;;1.70;;
69841;SDS011;57138;51.326;-0.068;2023-03-01T13:02:10;3.08;;;1.10;;
69841;SDS011;57138;51.326;-0.068;2023-03-01T13:07:48;2.90;;;1.13;;
69841;SDS011;57138;51.326;-0.068;2023-03-01T13:10:22;3.80;;;1.50;;
69841;SDS011;57138;51.326;-0.068;2023-03-01T13:17:54;3.78;;;1.35;;
69841;SDS011;57138;51.326;-0.068;2023-03-01T13:33:47;4.38;;;2.03;;
69841;SDS011;57138;51.326;-0.068;2023-03-01T13:38:55;6.78;;;1.48;;
69841;SDS011;57138;51.326;-0.068;2023-03-01T13:47:35;6.28;;;1.45;;
69841;SDS011;57138;51.326;-0.068;2023-03-01T13:49:47;6.55;;;1.85;;
69841;SDS011;57138;51.326;-0.068;2023-03-01T13:52:34;7.88;;;1.67;;
69841;SDS011;57138;51.326;-0.068;2023-03-01T13:55:51;4.20;;;2.17;;
69841;SDS011;57138;51.326;-0.068;2023-03-01T14:00:55;5.75;;;1.20;;
69841;SDS011;57138;51.326;-0.068;2023-03-01T14:03:27;4.13;;;1.20;;
69841;SDS011;57138;51.326;-0.068;2023-03-01T14:06:05;2.67;;;1.17;;
69841;SDS011;57138;51.326;-0.068;2023-03-01T14:08:34;5.35;;;1.38;;
69841;SDS011;57138;51.326;-0.068;2023-03-01T14:13:41;10.00;;;2.55;;
69841;SDS011;57138;51.326;-0.068;2023-03-01T14:19:20;3.92;;;1.23;;
69841;SDS011;57138;51.326;-0.068;2023-03-01T14:21:49;6.30;;;1.73;;
69841;SDS011;57138;51.326;-0.068;2023-03-01T14:24:28;4.00;;;1.45;;
69841;SDS011;57138;51.326;-0.068;2023-03-01T14:26:55;9.77;;;1.48;;
69841;SDS011;57138;51.326;-0.068;2023-03-01T14:29:37;4.03;;;1.33;;
69841;SDS011;57138;51.326;-0.068;2023-03-01T14:32:10;6.13;;;1.80;;
69841;SDS011;57138;51.326;-0.068;2023-03-01T14:34:38;3.30;;;1.42;;
69841;SDS011;57138;51.326;-0.068;2023-03-01T14:37:16;5.00;;;1.88;;
69841;SDS011;57138;51.326;-0.068;2023-03-01T14:39:53;4.57;;;1.67;;
69841;SDS011;57138;51.326;-0.068;2023-03-01T14:42:21;7.00;;;1.95;;
69841;SDS011;57138;51.326;-0.068;2023-03-01T14:44:50;5.85;;;2.17;;
69841;SDS011;57138;51.326;-0.068;2023-03-01T14:47:25;4.30;;;1.45;;
69841;SDS011;57138;51.326;-0.068;2023-03-01T14:49:54;10.63;;;1.90;;
69841;SDS011;57138;51.326;-0.068;2023-03-01T14:52:25;2.75;;;1.15;;
69841;SDS011;57138;51.326;-0.068;2023-03-01T14:57:26;3.88;;;1.55;;
69841;SDS011;57138;51.326;-0.068;2023-03-01T14:59:52;4.85;;;1.88;;
69841;SDS011;57138;51.326;-0.068;2023-03-01T15:02:23;5.57;;;2.03;;
69841;SDS011;57138;51.326;-0.068;2023-03-01T15:04:51;4.40;;;1.58;;
69841;SDS011;57138;51.326;-0.068;2023-03-01T15:07:21;6.05;;;1.40;;
69841;SDS011;57138;51.326;-0.068;2023-03-01T15:09:51;5.68;;;1.75;;
69841;SDS011;57138;51.326;-0.068;2023-03-01T15:14:55;7.63;;;1.63;;
69841;SDS011;57138;51.326;-0.068;2023-03-01T15:19:52;4.65;;;1.42;;
69841;SDS011;57138;51.326;-0.068;2023-03-01T15:22:18;4.53;;;1.67;;
69841;SDS011;57138;51.326;-0.068;2023-03-01T15:24:48;4.20;;;1.67;;
69841;SDS011;57138;51.326;-0.068;2023-03-01T15:27:16;4.45;;;2.08;;
69841;SDS011;57138;51.326;-0.068;2023-03-01T15:29:48;4.53;;;1.60;;
69841;SDS011;57138;51.326;-0.068;2023-03-01T15:32:29;4.40;;;1.65;;
69841;SDS011;57138;51.326;-0.068;2023-03-01T15:35:00;6.90;;;1.80;;
69841;SDS011;57138;51.326;-0.068;2023-03-01T15:40:19;12.43;;;2.10;;
69841;SDS011;57138;51.326;-0.068;2023-03-01T15:42:46;4.05;;;1.20;;
69841;SDS011;57138;51.326;-0.068;2023-03-01T15:47:41;7.07;;;2.75;;
69841;SDS011;57138;51.326;-0.068;2023-03-01T15:50:20;6.03;;;1.67;;
69841;SDS011;57138;51.326;-0.068;2023-03-01T15:52:54;5.50;;;2.33;;
69841;SDS011;57138;51.326;-0.068;2023-03-01T15:55:26;4.65;;;1.75;;
69841;SDS011;57138;51.326;-0.068;2023-03-01T15:58:02;9.15;;;1.80;;
69841;SDS011;57138;51.326;-0.068;2023-03-01T16:00:31;4.05;;;1.55;;
69841;SDS011;57138;51.326;-0.068;2023-03-01T16:02:57;6.60;;;2.13;;
69841;SDS011;57138;51.326;-0.068;2023-03-01T16:05:27;4.78;;;2.30;;
69841;SDS011;57138;51.326;-0.068;2023-03-01T16:07:55;4.03;;;1.40;;
69841;SDS011;57138;51.326;-0.068;2023-03-01T16:10:21;7.30;;;1.98;;
69841;SDS011;57138;51.326;-0.068;2023-03-01T16:12:47;5.95;;;1.95;;
69841;SDS011;57138;51.326;-0.068;2023-03-01T16:15:22;9.30;;;2.50;;
69841;SDS011;57138;51.326;-0.068;2023-03-01T16:17:50;7.68;;;1.70;;
69841;SDS011;57138;51.326;-0.068;2023-03-01T16:20:17;11.38;;;2.00;;
69841;SDS011;57138;51.326;-0.068;2023-03-01T16:22:43;7.80;;;2.80;;
69841;SDS011;57138;51.326;-0.068;2023-03-01T16:25:12;5.70;;;1.92;;
69841;SDS011;57138;51.326;-0.068;2023-03-01T16:27:41;4.75;;;1.45;;
69841;SDS011;57138;51.326;-0.068;2023-03-01T16:30:07;6.00;;;1.90;;
69841;SDS011;57138;51.326;-0.068;2023-03-01T16:32:37;7.30;;;2.60;;
69841;SDS011;57138;51.326;-0.068;2023-03-01T16:35:04;6.70;;;2.70;;
69841;SDS011;57138;51.326;-0.068;2023-03-01T16:37:31;9.30;;;2.00;;
69841;SDS011;57138;51.326;-0.068;2023-03-01T16:39:58;4.05;;;1.60;;
69841;SDS011;57138;51.326;-0.068;2023-03-01T16:42:24;5.53;;;1.88;;
69841;SDS011;57138;51.326;-0.068;2023-03-01T16:44:54;6.07;;;2.25;;
69841;SDS011;57138;51.326;-0.068;2023-03-01T16:47:22;6.57;;;2.17;;
69841;SDS011;57138;51.326;-0.068;2023-03-01T16:49:51;6.70;;;1.92;;
69841;SDS011;57138;51.326;-0.068;2023-03-01T16:52:16;7.63;;;2.10;;
69841;SDS011;57138;51.326;-0.068;2023-03-01T16:54:42;4.38;;;2.28;;
69841;SDS011;57138;51.326;-0.068;2023-03-01T16:57:07;8.15;;;2.35;;
69841;SDS011;57138;51.326;-0.068;2023-03-01T16:59:33;8.02;;;2.72;;
69841;SDS011;57138;51.326;-0.068;2023-03-01T17:01:58;7.88;;;3.10;;
69841;SDS011;57138;51.326;-0.068;2023-03-01T17:04:23;6.63;;;3.17;;
69841;SDS011;57138;51.326;-0.068;2023-03-01T17:06:49;8.05;;;2.80;;
69841;SDS011;57138;51.326;-0.068;2023-03-01T17:09:14;5.90;;;2.60;;
69841;SDS011;57138;51.326;-0.068;2023-03-01T17:11:42;4.45;;;2.22;;
69841;SDS011;57138;51.326;-0.068;2023-03-01T17:14:07;4.38;;;2.15;;
69841;SDS011;57138;51.326;-0.068;2023-03-01T17:16:33;6.43;;;2.25;;
69841;SDS011;57138;51.326;-0.068;2023-03-01T17:18:59;6.85;;;1.88;;